createdAt,value
2022-08-01T00:00:38.345Z,7.9
2022-08-01T00:15:54.529Z,9.2
2022-08-01T00:31:04.193Z,7.6
2022-08-01T00:46:16.271Z,6.5
2022-08-01T01:01:40.229Z,7.6
2022-08-01T01:16:59.371Z,7.4
2022-08-01T01:32:10.868Z,5.5
2022-08-01T01:47:20.587Z,4.9
2022-08-01T02:02:30.215Z,4.2
2022-08-01T02:17:39.918Z,5.2
2022-08-01T02:32:49.801Z,5.5
2022-08-01T02:48:02.360Z,5.3
2022-08-01T03:03:11.761Z,3.2
2022-08-01T03:18:21.126Z,3.7
2022-08-01T03:33:33.379Z,2.5
2022-08-01T03:48:44.810Z,2.8
2022-08-01T04:03:54.799Z,2.8
2022-08-01T04:19:04.385Z,7.1
2022-08-01T04:34:13.888Z,7.6
2022-08-01T04:49:23.767Z,6.2
2022-08-01T05:04:33.555Z,4.4
2022-08-01T05:19:43.191Z,5
2022-08-01T05:34:52.515Z,4.3
2022-08-01T05:50:02.964Z,4.9
2022-08-01T06:05:13.853Z,5.9
2022-08-01T06:20:23.552Z,2.5
2022-08-01T06:35:32.635Z,4
2022-08-01T06:50:41.844Z,5.5
2022-08-01T07:05:51.946Z,3.7
2022-08-01T07:21:05.170Z,3.3
2022-08-01T07:36:14.607Z,2.7
2022-08-01T07:51:24.186Z,3.7
2022-08-01T08:06:35.735Z,5
2022-08-01T08:21:47.316Z,3.1
2022-08-01T08:36:57.064Z,2
2022-08-01T08:52:11.061Z,2.3
2022-08-01T09:07:24.505Z,2.9
2022-08-01T09:22:34.971Z,4.5
2022-08-01T09:37:48.746Z,4.4
2022-08-01T09:52:58.598Z,4.6
2022-08-01T10:08:11.806Z,5.2
2022-08-01T10:23:21.739Z,3.9
2022-08-01T10:38:33.001Z,3.3
2022-08-01T10:53:43.335Z,2.7
2022-08-01T11:08:54.290Z,3.6
2022-08-01T11:24:07.329Z,3.2
2022-08-01T11:39:20.073Z,3.4
2022-08-01T11:54:36.236Z,4
2022-08-01T12:09:47.373Z,3.3
2022-08-01T12:24:57.519Z,3.9
2022-08-01T12:40:10.224Z,3.5
2022-08-01T12:55:19.754Z,3.3
2022-08-01T13:10:28.940Z,4.1
2022-08-01T13:25:39.075Z,3.6
2022-08-01T13:40:48.514Z,3.3
2022-08-01T13:55:57.802Z,3.3
2022-08-01T14:11:07.798Z,3.4
2022-08-01T14:26:18.398Z,4.3
2022-08-01T14:41:28.010Z,3.4
2022-08-01T14:56:36.808Z,3.3
2022-08-01T15:11:47.979Z,3.2
2022-08-01T15:26:57.343Z,2.1
2022-08-01T15:42:07.444Z,2.4
2022-08-01T15:57:18.375Z,2.5
2022-08-01T16:12:27.308Z,2.1
2022-08-01T16:27:39.448Z,2.6
2022-08-01T16:42:48.830Z,1.9
2022-08-01T16:57:58.486Z,2.5
2022-08-01T17:13:09.859Z,2.3
2022-08-01T17:28:19.423Z,2.6
2022-08-01T17:43:28.530Z,2.9
2022-08-01T17:58:52.419Z,2.2
2022-08-01T18:14:02.398Z,2.7
2022-08-01T18:29:12.424Z,2.4
2022-08-01T18:44:57.726Z,2.9
2022-08-01T19:00:06.979Z,2.5
2022-08-01T19:15:16.017Z,2.8
2022-08-01T19:30:25.046Z,3.2
2022-08-01T19:45:33.767Z,2.8
2022-08-01T20:00:43.302Z,3
2022-08-01T20:15:52.719Z,3
2022-08-01T20:31:05.972Z,2.6
2022-08-01T20:46:15.751Z,2.7
2022-08-01T21:01:24.315Z,3.2
2022-08-01T21:16:33.877Z,3
2022-08-01T21:31:43.716Z,3.3
2022-08-01T21:46:53.348Z,3.4
2022-08-01T22:02:02.852Z,2.9
2022-08-01T22:17:12.633Z,3.3
2022-08-01T22:32:21.925Z,4
2022-08-01T22:47:31.135Z,3.7
2022-08-01T23:02:39.964Z,3.3
2022-08-01T23:17:49.405Z,3.5
2022-08-01T23:32:59.063Z,4.6
2022-08-01T23:48:08.544Z,3.5
